sensor_id;sensor_type;location;lat;lon;timestamp;P1;durP1;ratioP1;P2;durP2;ratioP2
75603;SDS011;64187;51.010;13.792;2024-02-15T00:02:44;8.40;;;5.20;;
75603;SDS011;64187;51.010;13.792;2024-02-15T00:07:43;8.57;;;6.03;;
75603;SDS011;64187;51.010;13.792;2024-02-15T00:12:42;12.27;;;6.15;;
75603;SDS011;64187;51.010;13.792;2024-02-15T00:17:41;11.57;;;6.10;;
75603;SDS011;64187;51.010;13.792;2024-02-15T00:22:40;8.90;;;5.93;;
75603;SDS011;64187;51.010;13.792;2024-02-15T00:27:39;10.70;;;5.88;;
75603;SDS011;64187;51.010;13.792;2024-02-15T00:32:38;9.38;;;5.95;;
75603;SDS011;64187;51.010;13.792;2024-02-15T00:37:38;10.00;;;6.53;;
75603;SDS011;64187;51.010;13.792;2024-02-15T00:42:38;12.43;;;6.78;;
75603;SDS011;64187;51.010;13.792;2024-02-15T00:47:37;11.98;;;7.05;;
75603;SDS011;64187;51.010;13.792;2024-02-15T00:52:37;10.18;;;7.05;;
75603;SDS011;64187;51.010;13.792;2024-02-15T00:57:36;8.05;;;5.80;;
75603;SDS011;64187;51.010;13.792;2024-02-15T01:02:34;11.05;;;6.97;;
75603;SDS011;64187;51.010;13.792;2024-02-15T01:07:34;10.27;;;6.75;;
75603;SDS011;64187;51.010;13.792;2024-02-15T01:12:33;10.70;;;6.60;;
75603;SDS011;64187;51.010;13.792;2024-02-15T01:17:32;13.38;;;7.05;;
75603;SDS011;64187;51.010;13.792;2024-02-15T01:22:31;11.88;;;7.13;;
75603;SDS011;64187;51.010;13.792;2024-02-15T01:27:30;12.98;;;7.03;;
75603;SDS011;64187;51.010;13.792;2024-02-15T01:32:29;11.40;;;7.03;;
75603;SDS011;64187;51.010;13.792;2024-02-15T01:37:28;13.70;;;7.40;;
75603;SDS011;64187;51.010;13.792;2024-02-15T01:42:27;9.73;;;7.18;;
75603;SDS011;64187;51.010;13.792;2024-02-15T01:47:25;11.38;;;7.07;;
75603;SDS011;64187;51.010;13.792;2024-02-15T01:52:24;11.88;;;7.70;;
75603;SDS011;64187;51.010;13.792;2024-02-15T01:57:23;13.30;;;7.32;;
75603;SDS011;64187;51.010;13.792;2024-02-15T02:02:22;11.75;;;7.90;;
75603;SDS011;64187;51.010;13.792;2024-02-15T02:07:27;11.43;;;7.05;;
75603;SDS011;64187;51.010;13.792;2024-02-15T02:12:26;12.27;;;7.25;;
75603;SDS011;64187;51.010;13.792;2024-02-15T02:17:28;10.50;;;6.82;;
75603;SDS011;64187;51.010;13.792;2024-02-15T02:22:27;13.88;;;6.93;;
75603;SDS011;64187;51.010;13.792;2024-02-15T02:27:31;11.15;;;6.63;;
75603;SDS011;64187;51.010;13.792;2024-02-15T02:32:31;10.50;;;6.90;;
75603;SDS011;64187;51.010;13.792;2024-02-15T02:37:32;10.05;;;6.90;;
75603;SDS011;64187;51.010;13.792;2024-02-15T02:42:36;11.23;;;7.38;;
75603;SDS011;64187;51.010;13.792;2024-02-15T02:47:44;11.57;;;6.30;;
75603;SDS011;64187;51.010;13.792;2024-02-15T02:52:53;10.98;;;6.32;;
75603;SDS011;64187;51.010;13.792;2024-02-15T02:57:52;8.23;;;6.28;;
75603;SDS011;64187;51.010;13.792;2024-02-15T03:02:53;10.88;;;6.53;;
75603;SDS011;64187;51.010;13.792;2024-02-15T03:07:55;11.05;;;6.18;;
75603;SDS011;64187;51.010;13.792;2024-02-15T03:12:55;9.65;;;6.35;;
75603;SDS011;64187;51.010;13.792;2024-02-15T03:17:54;8.55;;;6.00;;
75603;SDS011;64187;51.010;13.792;2024-02-15T03:22:54;10.75;;;6.47;;
75603;SDS011;64187;51.010;13.792;2024-02-15T03:27:55;10.88;;;6.60;;
75603;SDS011;64187;51.010;13.792;2024-02-15T03:32:55;9.70;;;6.75;;
75603;SDS011;64187;51.010;13.792;2024-02-15T03:37:54;8.98;;;6.18;;
75603;SDS011;64187;51.010;13.792;2024-02-15T03:42:53;10.77;;;5.68;;
75603;SDS011;64187;51.010;13.792;2024-02-15T03:47:52;10.32;;;6.00;;
75603;SDS011;64187;51.010;13.792;2024-02-15T03:52:51;8.38;;;5.57;;
75603;SDS011;64187;51.010;13.792;2024-02-15T03:57:50;8.57;;;5.78;;
75603;SDS011;64187;51.010;13.792;2024-02-15T04:02:50;8.95;;;5.45;;
75603;SDS011;64187;51.010;13.792;2024-02-15T04:07:49;9.88;;;6.57;;
75603;SDS011;64187;51.010;13.792;2024-02-15T04:12:48;9.38;;;6.35;;
75603;SDS011;64187;51.010;13.792;2024-02-15T04:17:47;9.15;;;5.82;;
75603;SDS011;64187;51.010;13.792;2024-02-15T04:22:47;8.82;;;6.05;;
75603;SDS011;64187;51.010;13.792;2024-02-15T04:27:48;10.75;;;6.63;;
75603;SDS011;64187;51.010;13.792;2024-02-15T04:32:50;12.80;;;6.68;;
75603;SDS011;64187;51.010;13.792;2024-02-15T04:37:50;11.57;;;6.20;;
75603;SDS011;64187;51.010;13.792;2024-02-15T04:42:50;11.50;;;5.95;;
75603;SDS011;64187;51.010;13.792;2024-02-15T04:47:49;9.25;;;6.18;;
75603;SDS011;64187;51.010;13.792;2024-02-15T04:52:51;8.77;;;6.20;;
75603;SDS011;64187;51.010;13.792;2024-02-15T04:57:50;12.38;;;7.07;;
75603;SDS011;64187;51.010;13.792;2024-02-15T05:02:53;11.80;;;6.95;;
75603;SDS011;64187;51.010;13.792;2024-02-15T05:07:52;9.43;;;6.40;;
75603;SDS011;64187;51.010;13.792;2024-02-15T05:12:51;9.95;;;6.65;;
75603;SDS011;64187;51.010;13.792;2024-02-15T05:17:52;11.50;;;6.55;;
75603;SDS011;64187;51.010;13.792;2024-02-15T05:22:53;14.57;;;7.93;;
75603;SDS011;64187;51.010;13.792;2024-02-15T05:27:52;9.38;;;6.45;;
75603;SDS011;64187;51.010;13.792;2024-02-15T05:32:55;12.38;;;7.60;;
75603;SDS011;64187;51.010;13.792;2024-02-15T05:37:55;11.98;;;7.20;;
75603;SDS011;64187;51.010;13.792;2024-02-15T05:42:55;12.73;;;7.47;;
75603;SDS011;64187;51.010;13.792;2024-02-15T05:47:55;10.82;;;7.95;;
75603;SDS011;64187;51.010;13.792;2024-02-15T05:52:54;13.35;;;8.45;;
75603;SDS011;64187;51.010;13.792;2024-02-15T05:57:54;10.80;;;7.32;;
75603;SDS011;64187;51.010;13.792;2024-02-15T06:02:52;12.02;;;7.43;;
75603;SDS011;64187;51.010;13.792;2024-02-15T06:07:53;16.08;;;8.32;;
75603;SDS011;64187;51.010;13.792;2024-02-15T06:12:52;12.27;;;8.20;;
75603;SDS011;64187;51.010;13.792;2024-02-15T06:17:51;13.82;;;8.73;;
75603;SDS011;64187;51.010;13.792;2024-02-15T06:22:51;12.07;;;7.55;;
75603;SDS011;64187;51.010;13.792;2024-02-15T06:27:50;12.32;;;8.02;;
75603;SDS011;64187;51.010;13.792;2024-02-15T06:32:57;13.80;;;7.78;;
75603;SDS011;64187;51.010;13.792;2024-02-15T06:38:15;13.45;;;8.13;;
75603;SDS011;64187;51.010;13.792;2024-02-15T06:43:32;11.93;;;7.78;;
75603;SDS011;64187;51.010;13.792;2024-02-15T06:48:33;11.80;;;7.70;;
75603;SDS011;64187;51.010;13.792;2024-02-15T06:53:32;13.23;;;8.38;;
75603;SDS011;64187;51.010;13.792;2024-02-15T06:58:31;13.32;;;8.32;;
75603;SDS011;64187;51.010;13.792;2024-02-15T07:03:31;13.82;;;9.13;;
75603;SDS011;64187;51.010;13.792;2024-02-15T07:08:34;13.68;;;8.32;;
75603;SDS011;64187;51.010;13.792;2024-02-15T07:13:32;13.55;;;8.52;;
75603;SDS011;64187;51.010;13.792;2024-02-15T07:18:32;15.10;;;9.15;;
75603;SDS011;64187;51.010;13.792;2024-02-15T07:23:31;13.43;;;9.02;;
75603;SDS011;64187;51.010;13.792;2024-02-15T07:28:33;14.57;;;8.88;;
75603;SDS011;64187;51.010;13.792;2024-02-15T07:33:33;12.65;;;8.35;;
75603;SDS011;64187;51.010;13.792;2024-02-15T07:38:34;13.93;;;9.57;;
75603;SDS011;64187;51.010;13.792;2024-02-15T07:43:33;15.65;;;9.30;;
75603;SDS011;64187;51.010;13.792;2024-02-15T07:48:35;15.30;;;8.82;;
75603;SDS011;64187;51.010;13.792;2024-02-15T07:53:34;15.75;;;9.13;;
75603;SDS011;64187;51.010;13.792;2024-02-15T07:58:33;17.27;;;9.88;;
75603;SDS011;64187;51.010;13.792;2024-02-15T08:03:32;14.73;;;8.98;;
75603;SDS011;64187;51.010;13.792;2024-02-15T08:08:34;15.20;;;9.30;;
75603;SDS011;64187;51.010;13.792;2024-02-15T08:13:34;7.68;;;4.95;;
75603;SDS011;64187;51.010;13.792;2024-02-15T08:18:32;12.02;;;7.75;;
75603;SDS011;64187;51.010;13.792;2024-02-15T08:23:34;14.95;;;8.70;;
75603;SDS011;64187;51.010;13.792;2024-02-15T08:28:33;13.02;;;8.13;;
75603;SDS011;64187;51.010;13.792;2024-02-15T08:33:32;13.00;;;8.90;;
75603;SDS011;64187;51.010;13.792;2024-02-15T08:38:32;16.10;;;9.65;;
75603;SDS011;64187;51.010;13.792;2024-02-15T08:43:34;14.48;;;8.90;;
75603;SDS011;64187;51.010;13.792;2024-02-15T08:48:33;16.08;;;8.45;;
75603;SDS011;64187;51.010;13.792;2024-02-15T08:53:34;13.65;;;7.93;;
75603;SDS011;64187;51.010;13.792;2024-02-15T08:58:35;15.23;;;8.38;;
75603;SDS011;64187;51.010;13.792;2024-02-15T09:03:35;12.73;;;7.75;;
75603;SDS011;64187;51.010;13.792;2024-02-15T09:08:34;14.20;;;7.68;;
75603;SDS011;64187;51.010;13.792;2024-02-15T09:13:34;11.43;;;7.40;;
75603;SDS011;64187;51.010;13.792;2024-02-15T09:18:36;15.05;;;8.75;;
75603;SDS011;64187;51.010;13.792;2024-02-15T09:23:35;12.27;;;7.72;;
75603;SDS011;64187;51.010;13.792;2024-02-15T09:28:34;13.93;;;8.07;;
75603;SDS011;64187;51.010;13.792;2024-02-15T09:33:33;14.43;;;7.80;;
75603;SDS011;64187;51.010;13.792;2024-02-15T09:38:32;13.15;;;7.57;;
75603;SDS011;64187;51.010;13.792;2024-02-15T09:43:32;12.25;;;7.95;;
75603;SDS011;64187;51.010;13.792;2024-02-15T09:48:31;12.20;;;7.50;;
75603;SDS011;64187;51.010;13.792;2024-02-15T09:53:31;14.00;;;8.80;;
75603;SDS011;64187;51.010;13.792;2024-02-15T09:58:30;12.15;;;8.23;;
75603;SDS011;64187;51.010;13.792;2024-02-15T10:08:32;14.60;;;8.65;;
75603;SDS011;64187;51.010;13.792;2024-02-15T10:13:31;13.73;;;8.13;;
75603;SDS011;64187;51.010;13.792;2024-02-15T10:18:30;13.07;;;8.20;;
75603;SDS011;64187;51.010;13.792;2024-02-15T10:23:29;12.40;;;8.13;;
75603;SDS011;64187;51.010;13.792;2024-02-15T10:28:28;14.10;;;8.13;;
75603;SDS011;64187;51.010;13.792;2024-02-15T10:33:28;13.95;;;8.35;;
75603;SDS011;64187;51.010;13.792;2024-02-15T10:38:28;12.73;;;7.40;;
75603;SDS011;64187;51.010;13.792;2024-02-15T10:43:27;13.05;;;8.55;;
75603;SDS011;64187;51.010;13.792;2024-02-15T10:48:26;13.75;;;7.93;;
75603;SDS011;64187;51.010;13.792;2024-02-15T10:53:30;13.73;;;8.57;;
75603;SDS011;64187;51.010;13.792;2024-02-15T10:58:31;15.05;;;8.82;;
75603;SDS011;64187;51.010;13.792;2024-02-15T11:03:40;14.05;;;8.75;;
75603;SDS011;64187;51.010;13.792;2024-02-15T11:08:50;12.73;;;7.70;;
75603;SDS011;64187;51.010;13.792;2024-02-15T11:13:49;14.10;;;8.40;;
75603;SDS011;64187;51.010;13.792;2024-02-15T11:18:48;14.30;;;8.48;;
75603;SDS011;64187;51.010;13.792;2024-02-15T11:23:50;12.75;;;7.88;;
75603;SDS011;64187;51.010;13.792;2024-02-15T11:28:49;11.30;;;6.82;;
75603;SDS011;64187;51.010;13.792;2024-02-15T11:33:49;10.15;;;6.18;;
75603;SDS011;64187;51.010;13.792;2024-02-15T11:38:48;11.50;;;6.55;;
75603;SDS011;64187;51.010;13.792;2024-02-15T11:43:49;16.00;;;7.63;;
75603;SDS011;64187;51.010;13.792;2024-02-15T11:54:07;5.88;;;1.30;;
75603;SDS011;64187;51.010;13.792;2024-02-15T11:59:10;3.55;;;1.00;;
75603;SDS011;64187;51.010;13.792;2024-02-15T12:04:18;1.10;;;0.82;;
75603;SDS011;64187;51.010;13.792;2024-02-15T12:09:35;1.40;;;0.60;;
75603;SDS011;64187;51.010;13.792;2024-02-15T12:15:12;1.27;;;0.80;;
75603;SDS011;64187;51.010;13.792;2024-02-15T12:25:33;3.55;;;0.70;;
75603;SDS011;64187;51.010;13.792;2024-02-15T12:30:33;1.10;;;0.88;;
75603;SDS011;64187;51.010;13.792;2024-02-15T12:35:36;1.50;;;0.80;;
75603;SDS011;64187;51.010;13.792;2024-02-15T12:53:36;0.77;;;0.68;;
75603;SDS011;64187;51.010;13.792;2024-02-15T12:58:35;1.05;;;0.60;;
75603;SDS011;64187;51.010;13.792;2024-02-15T13:03:35;1.00;;;0.68;;
75603;SDS011;64187;51.010;13.792;2024-02-15T13:08:34;0.85;;;0.80;;
75603;SDS011;64187;51.010;13.792;2024-02-15T13:13:33;0.70;;;0.60;;
75603;SDS011;64187;51.010;13.792;2024-02-15T13:18:33;1.40;;;0.73;;
75603;SDS011;64187;51.010;13.792;2024-02-15T13:23:32;1.50;;;0.60;;
75603;SDS011;64187;51.010;13.792;2024-02-15T13:34:58;1.15;;;0.60;;
75603;SDS011;64187;51.010;13.792;2024-02-15T13:40:06;1.80;;;1.00;;
75603;SDS011;64187;51.010;13.792;2024-02-15T13:45:13;0.82;;;0.60;;
75603;SDS011;64187;51.010;13.792;2024-02-15T13:50:12;1.25;;;0.60;;
75603;SDS011;64187;51.010;13.792;2024-02-15T13:55:18;1.67;;;0.50;;
75603;SDS011;64187;51.010;13.792;2024-02-15T14:00:17;0.80;;;0.57;;
75603;SDS011;64187;51.010;13.792;2024-02-15T14:05:21;1.20;;;0.60;;
75603;SDS011;64187;51.010;13.792;2024-02-15T14:10:33;1.63;;;0.70;;
75603;SDS011;64187;51.010;13.792;2024-02-15T14:15:35;0.90;;;0.47;;
75603;SDS011;64187;51.010;13.792;2024-02-15T14:20:38;1.98;;;0.93;;
75603;SDS011;64187;51.010;13.792;2024-02-15T14:25:37;3.80;;;2.00;;
75603;SDS011;64187;51.010;13.792;2024-02-15T14:30:36;3.42;;;2.45;;
75603;SDS011;64187;51.010;13.792;2024-02-15T14:35:56;4.63;;;3.13;;
75603;SDS011;64187;51.010;13.792;2024-02-15T14:40:58;5.20;;;3.60;;
75603;SDS011;64187;51.010;13.792;2024-02-15T14:45:59;7.63;;;4.18;;
75603;SDS011;64187;51.010;13.792;2024-02-15T14:51:00;5.93;;;4.25;;
75603;SDS011;64187;51.010;13.792;2024-02-15T14:56:00;7.82;;;3.92;;
75603;SDS011;64187;51.010;13.792;2024-02-15T15:01:00;7.28;;;4.18;;
75603;SDS011;64187;51.010;13.792;2024-02-15T15:06:07;7.10;;;4.50;;
75603;SDS011;64187;51.010;13.792;2024-02-15T15:11:26;6.97;;;4.50;;
75603;SDS011;64187;51.010;13.792;2024-02-15T15:16:43;6.75;;;4.50;;
75603;SDS011;64187;51.010;13.792;2024-02-15T15:21:42;8.55;;;5.78;;
75603;SDS011;64187;51.010;13.792;2024-02-15T15:26:41;9.30;;;5.55;;
75603;SDS011;64187;51.010;13.792;2024-02-15T15:31:40;12.10;;;6.82;;
75603;SDS011;64187;51.010;13.792;2024-02-15T15:36:39;10.50;;;6.65;;
75603;SDS011;64187;51.010;13.792;2024-02-15T15:41:38;10.18;;;6.68;;
75603;SDS011;64187;51.010;13.792;2024-02-15T15:46:39;14.32;;;7.63;;
75603;SDS011;64187;51.010;13.792;2024-02-15T15:51:41;12.57;;;7.63;;
75603;SDS011;64187;51.010;13.792;2024-02-15T15:56:40;11.75;;;6.90;;
75603;SDS011;64187;51.010;13.792;2024-02-15T16:01:47;11.57;;;7.60;;
75603;SDS011;64187;51.010;13.792;2024-02-15T16:06:46;11.55;;;7.88;;
75603;SDS011;64187;51.010;13.792;2024-02-15T16:11:45;10.80;;;7.65;;
75603;SDS011;64187;51.010;13.792;2024-02-15T16:16:45;12.90;;;8.32;;
75603;SDS011;64187;51.010;13.792;2024-02-15T16:21:44;13.35;;;8.07;;
75603;SDS011;64187;51.010;13.792;2024-02-15T16:26:43;13.90;;;8.35;;
75603;SDS011;64187;51.010;13.792;2024-02-15T16:31:42;12.93;;;8.20;;
75603;SDS011;64187;51.010;13.792;2024-02-15T16:36:42;12.88;;;8.02;;
75603;SDS011;64187;51.010;13.792;2024-02-15T16:41:45;11.98;;;8.50;;
75603;SDS011;64187;51.010;13.792;2024-02-15T16:46:51;10.30;;;7.80;;
75603;SDS011;64187;51.010;13.792;2024-02-15T16:51:49;10.55;;;7.80;;
75603;SDS011;64187;51.010;13.792;2024-02-15T16:56:48;14.13;;;8.65;;
75603;SDS011;64187;51.010;13.792;2024-02-15T17:01:53;10.45;;;7.93;;
75603;SDS011;64187;51.010;13.792;2024-02-15T17:06:52;13.27;;;9.10;;
75603;SDS011;64187;51.010;13.792;2024-02-15T17:11:52;14.10;;;9.43;;
75603;SDS011;64187;51.010;13.792;2024-02-15T17:16:53;12.05;;;8.23;;
75603;SDS011;64187;51.010;13.792;2024-02-15T17:21:54;12.20;;;8.07;;
75603;SDS011;64187;51.010;13.792;2024-02-15T17:26:53;12.98;;;7.80;;
75603;SDS011;64187;51.010;13.792;2024-02-15T17:31:52;11.57;;;8.52;;
75603;SDS011;64187;51.010;13.792;2024-02-15T17:36:51;16.02;;;9.23;;
75603;SDS011;64187;51.010;13.792;2024-02-15T17:41:50;14.82;;;9.45;;
75603;SDS011;64187;51.010;13.792;2024-02-15T17:46:52;15.25;;;9.95;;
75603;SDS011;64187;51.010;13.792;2024-02-15T17:51:52;14.52;;;9.77;;
75603;SDS011;64187;51.010;13.792;2024-02-15T17:56:51;14.73;;;10.60;;
75603;SDS011;64187;51.010;13.792;2024-02-15T18:01:51;16.10;;;9.80;;
75603;SDS011;64187;51.010;13.792;2024-02-15T18:06:50;13.88;;;10.02;;
75603;SDS011;64187;51.010;13.792;2024-02-15T18:11:50;15.75;;;10.45;;
75603;SDS011;64187;51.010;13.792;2024-02-15T18:16:49;15.20;;;10.48;;
75603;SDS011;64187;51.010;13.792;2024-02-15T18:21:49;15.55;;;9.93;;
75603;SDS011;64187;51.010;13.792;2024-02-15T18:26:48;16.02;;;10.98;;
75603;SDS011;64187;51.010;13.792;2024-02-15T18:31:47;15.57;;;10.52;;
75603;SDS011;64187;51.010;13.792;2024-02-15T18:36:46;16.48;;;10.40;;
75603;SDS011;64187;51.010;13.792;2024-02-15T18:41:47;18.40;;;11.38;;
75603;SDS011;64187;51.010;13.792;2024-02-15T18:46:48;16.45;;;10.95;;
75603;SDS011;64187;51.010;13.792;2024-02-15T18:51:48;18.58;;;11.25;;
75603;SDS011;64187;51.010;13.792;2024-02-15T18:56:48;19.95;;;12.88;;
75603;SDS011;64187;51.010;13.792;2024-02-15T19:01:53;20.35;;;13.55;;
75603;SDS011;64187;51.010;13.792;2024-02-15T19:06:52;20.08;;;11.88;;
75603;SDS011;64187;51.010;13.792;2024-02-15T19:11:51;22.35;;;14.48;;
75603;SDS011;64187;51.010;13.792;2024-02-15T19:16:51;19.40;;;13.90;;
75603;SDS011;64187;51.010;13.792;2024-02-15T19:21:50;21.00;;;12.80;;
75603;SDS011;64187;51.010;13.792;2024-02-15T19:26:49;20.10;;;13.52;;
75603;SDS011;64187;51.010;13.792;2024-02-15T19:31:48;21.92;;;14.65;;
75603;SDS011;64187;51.010;13.792;2024-02-15T19:36:48;23.75;;;17.33;;
75603;SDS011;64187;51.010;13.792;2024-02-15T19:41:55;23.30;;;14.23;;
75603;SDS011;64187;51.010;13.792;2024-02-15T19:46:54;24.27;;;14.70;;
75603;SDS011;64187;51.010;13.792;2024-02-15T19:51:53;22.30;;;15.93;;
75603;SDS011;64187;51.010;13.792;2024-02-15T19:56:52;26.42;;;15.88;;
75603;SDS011;64187;51.010;13.792;2024-02-15T20:01:51;26.83;;;14.90;;
75603;SDS011;64187;51.010;13.792;2024-02-15T20:06:52;25.83;;;15.20;;
75603;SDS011;64187;51.010;13.792;2024-02-15T20:11:51;23.30;;;15.63;;
75603;SDS011;64187;51.010;13.792;2024-02-15T20:16:50;24.73;;;14.90;;
75603;SDS011;64187;51.010;13.792;2024-02-15T20:21:53;25.25;;;15.88;;
75603;SDS011;64187;51.010;13.792;2024-02-15T20:26:52;27.13;;;15.40;;
75603;SDS011;64187;51.010;13.792;2024-02-15T20:31:51;25.55;;;15.32;;
75603;SDS011;64187;51.010;13.792;2024-02-15T20:36:51;29.48;;;15.98;;
75603;SDS011;64187;51.010;13.792;2024-02-15T20:41:50;25.45;;;15.88;;
75603;SDS011;64187;51.010;13.792;2024-02-15T20:46:49;24.77;;;15.18;;
75603;SDS011;64187;51.010;13.792;2024-02-15T20:51:48;26.92;;;15.88;;
75603;SDS011;64187;51.010;13.792;2024-02-15T20:56:48;26.02;;;15.73;;
75603;SDS011;64187;51.010;13.792;2024-02-15T21:01:48;29.80;;;15.13;;
75603;SDS011;64187;51.010;13.792;2024-02-15T21:06:48;24.00;;;14.27;;
75603;SDS011;64187;51.010;13.792;2024-02-15T21:11:48;24.33;;;14.52;;
75603;SDS011;64187;51.010;13.792;2024-02-15T21:16:46;24.15;;;14.10;;
75603;SDS011;64187;51.010;13.792;2024-02-15T21:21:45;21.42;;;13.27;;
75603;SDS011;64187;51.010;13.792;2024-02-15T21:26:45;26.20;;;14.32;;
75603;SDS011;64187;51.010;13.792;2024-02-15T21:31:45;28.27;;;13.73;;
75603;SDS011;64187;51.010;13.792;2024-02-15T21:36:49;23.00;;;13.95;;
75603;SDS011;64187;51.010;13.792;2024-02-15T21:41:48;24.52;;;14.15;;
75603;SDS011;64187;51.010;13.792;2024-02-15T21:46:47;22.90;;;13.13;;
75603;SDS011;64187;51.010;13.792;2024-02-15T21:51:52;22.08;;;12.68;;
75603;SDS011;64187;51.010;13.792;2024-02-15T21:56:52;26.65;;;14.45;;
75603;SDS011;64187;51.010;13.792;2024-02-15T22:01:50;20.67;;;12.80;;
75603;SDS011;64187;51.010;13.792;2024-02-15T22:06:50;22.92;;;12.80;;
75603;SDS011;64187;51.010;13.792;2024-02-15T22:11:49;19.55;;;12.13;;
75603;SDS011;64187;51.010;13.792;2024-02-15T22:16:48;21.38;;;12.50;;
75603;SDS011;64187;51.010;13.792;2024-02-15T22:21:47;20.17;;;12.30;;
75603;SDS011;64187;51.010;13.792;2024-02-15T22:26:49;20.58;;;12.18;;
75603;SDS011;64187;51.010;13.792;2024-02-15T22:31:48;20.75;;;12.43;;
75603;SDS011;64187;51.010;13.792;2024-02-15T22:36:46;19.65;;;10.68;;
75603;SDS011;64187;51.010;13.792;2024-02-15T22:41:46;20.88;;;11.07;;
75603;SDS011;64187;51.010;13.792;2024-02-15T22:46:45;18.45;;;12.38;;
75603;SDS011;64187;51.010;13.792;2024-02-15T22:51:48;21.38;;;11.18;;
75603;SDS011;64187;51.010;13.792;2024-02-15T22:56:48;20.02;;;11.20;;
75603;SDS011;64187;51.010;13.792;2024-02-15T23:01:48;18.50;;;10.73;;
75603;SDS011;64187;51.010;13.792;2024-02-15T23:06:47;18.05;;;10.95;;
75603;SDS011;64187;51.010;13.792;2024-02-15T23:11:47;19.77;;;10.48;;
75603;SDS011;64187;51.010;13.792;2024-02-15T23:16:46;20.48;;;10.95;;
75603;SDS011;64187;51.010;13.792;2024-02-15T23:21:45;21.63;;;11.10;;
75603;SDS011;64187;51.010;13.792;2024-02-15T23:26:44;22.02;;;11.30;;
75603;SDS011;64187;51.010;13.792;2024-02-15T23:31:46;18.70;;;10.63;;
75603;SDS011;64187;51.010;13.792;2024-02-15T23:36:45;18.33;;;11.10;;
75603;SDS011;64187;51.010;13.792;2024-02-15T23:42:02;18.30;;;10.85;;
75603;SDS011;64187;51.010;13.792;2024-02-15T23:47:02;22.13;;;11.10;;
75603;SDS011;64187;51.010;13.792;2024-02-15T23:52:01;17.17;;;11.23;;
75603;SDS011;64187;51.010;13.792;2024-02-15T23:56:59;18.10;;;10.30;;
